Stefan Pohl

Olheiro-Chefe - Werder Bremen
3 Abr 2027
Sábado
Processo

Personalidade

Adaptabilidade (18) Ambição (5) Controvérsia (19) Lealdade (10) Pressão (11) Profissionalismo (8) Espírito Esportivo (19) Temperamento (5)

Perfil

Estilo de Treinamento Democrático
Licença Continental C
Determinação 6
Gestão de Pessoas 12
Motivação 14
Disciplina 7
Satisfação no Trabalho
50%
Fadiga
0%
Função Olheiro-Chefe
Salário 107.1K p/s
Contrato 14.03.2029

Desempenho

Comportamento Normal
Eficácia do Treinamento
25%
Desenvolvimento do Jogador
60%
Prevenção de Lesões
25%
Implementação Tática
40%

Eventos Recentes

Participou de uma reunião de recrutamento agora
Recomendou um alvo de transferência agora
Recomendou um alvo de transferência agora
Recomendou um alvo de transferência agora
Recomendou um alvo de transferência agora
Recomendou um alvo de transferência agora
Participou de uma reunião de recrutamento agora
Avaliou um jogador agora

Monitorando agora

249
Jogador Clube Status Habilidade Confiança Observado Última observação Último voto
Carlos Fernández Oviedo Ativo 128 / 134 40% 11 01.04.2027 -
Diego Costa Krasnodar Ativo 141 / 151 40% 4 01.04.2027 -
Peer Koopmeiners AZ Ativo 135 / 129 40% 3 01.04.2027 -
Yanis Begraoui Estoril Praia Ativo 131 / 128 40% 2 01.04.2027 -
Sergi Altimira Sporting CP Ativo 139 / 133 40% 1 01.04.2027 -
Elijah Dijkstra Feyenoord Ativo 122 / 126 40% 2 31.03.2027 -
Axel Tape Bayer Leverkusen Ativo 128 / 135 40% 1 31.03.2027 Aprovar
Lior Kasa Maccabi Haifa Ativo 114 / 111 40% 1 31.03.2027 -
Danylo Sikan Anderlecht Ativo 128 / 120 40% 3 29.03.2027 -
Samuel Essende Young Boys Ativo 125 / 120 40% 3 29.03.2027 -
Rumarn Burrell Queens Park Rangers Ativo 125 / 122 40% 2 29.03.2027 -
Rafiu Durosinmi Racing Genk Ativo 130 / 121 40% 3 28.03.2027 -
Bart van Rooij Twente Ativo 135 / 128 40% 4 28.03.2027 -
Junnosuke Suzuki FC Copenhagen Ativo 135 / 124 40% 3 28.03.2027 -
Ferreirinha Sport Recife Ativo 127 / 126 40% 4 28.03.2027 -
Sambou Soumano FC Lorient Ativo 125 / 127 40% 2 28.03.2027 -
Tanner Tessmann Olympique Lyonnais Ativo 144 / 149 40% 1 28.03.2027 -
Matthew Litherland Blackburn Rovers Ativo 107 / 106 40% 1 28.03.2027 -
Sabil Hansen Randers Ativo 109 / 98 40% 1 28.03.2027 -
Francisco Chissumba Braga Ativo 123 / 119 40% 1 28.03.2027 -
Juninho Utrecht Ativo 127 / 124 40% 4 25.03.2027 -
Everton Bala Levski Ativo 135 / 110 40% 2 25.03.2027 -
Chupete Málaga Ativo 131 / 132 40% 3 23.03.2027 -
Cristian Shpendi Cesena Ativo 130 / 140 40% 2 22.03.2027 -
Derry Scherhant SC Freiburg Ativo 134 / 134 40% 1 22.03.2027 -
Claudio Spinelli Vasco da Gama Ativo 135 / 127 40% 6 21.03.2027 -
Kaio Jorge Cruzeiro Ativo 143 / 141 40% 3 21.03.2027 -
Jackson Muleka Konyaspor Ativo 123 / 110 40% 1 21.03.2027 -
Moussa Dembélé Al-Ettifaq Ativo 138 / 121 40% 4 20.03.2027 -
Alexandr Sobolev Zenit Ativo 135 / 120 40% 3 19.03.2027 -
Arthur Cabral Botafogo Ativo 124 / 117 40% 4 19.03.2027 -
Rey Manaj Sivasspor Ativo 132 / 113 40% 3 19.03.2027 -
Lucas Agazzi Defensor Sporting Ativo 128 / 131 40% 1 19.03.2027 -
Facundo González River Plate Ativo 103 / 110 40% 1 19.03.2027 -
Diego Rossi Monterrey Ativo 130 / 138 40% 4 17.03.2027 -
Allahyar Sayyadmanesh Lech Ativo 134 / 141 40% 2 17.03.2027 -
Orri Óskarsson Real Sociedad Ativo 129 / 141 40% 1 17.03.2027 -
Michel Ndary Adopo Cagliari Ativo 134 / 144 40% 4 16.03.2027 -
Danilo Botafogo Ativo 146 / 129 40% 3 16.03.2027 -
Figueiredo Alverca Ativo 128 / 129 40% 1 16.03.2027 -
Hugo Rincón Athletic Bilbao Ativo 140 / 143 40% 1 16.03.2027 -
Ondřej Lingr Korona Ativo 122 / 136 40% 1 14.03.2027 -
Álex Forés Burgos Ativo 133 / 133 40% 2 13.03.2027 -
Enes Ünal Getafe Ativo 140 / 133 40% 3 12.03.2027 -
José Manuel López Palmeiras Ativo 136 / 131 40% 9 12.03.2027 -
Ragnar Ache Köln Ativo 130 / 140 40% 5 11.03.2027 -
Oli McBurnie Hull City Ativo 134 / 143 40% 5 11.03.2027 -
Adrian Benedyczak Kasimpasa Ativo 127 / 130 40% 2 11.03.2027 -
Tiago Freitas Benfica Ativo 111 / 109 40% 1 11.03.2027 -
Enoch Mastoras Ajax Ativo 125 / 121 40% 1 11.03.2027 -
Khalfan Nader Al Shaab Ativo 101 / 107 40% 1 11.03.2027 -
Morgan Whittaker Middlesbrough Ativo 132 / 122 40% 2 10.03.2027 -
Ozziel Herrera Tigres Ativo 134 / 137 40% 2 10.03.2027 -
Marco Brescianini Fiorentina Ativo 145 / 134 40% 1 08.03.2027 -
Johannes Eggestein Austria Wien Ativo 130 / 116 40% 4 07.03.2027 -
Juan Carlos Arana Racing Santander Ativo 134 / 120 40% 4 07.03.2027 -
Roger Brugué Levante Ativo 134 / 137 40% 6 05.03.2027 -
Luciano Gondou CSKA Moscow Ativo 125 / 132 40% 7 05.03.2027 -
Efraín Álvarez Guadalajara Ativo 126 / 144 40% 10 04.03.2027 -
Martinelli Fluminense Ativo 147 / 142 40% 6 04.03.2027 -
Marcos Antonio Sport Recife Ativo 138 / 124 40% 5 04.03.2027 -
Mohamed Simakan Al-Nassr Ativo 147 / 130 40% 5 04.03.2027 -
Soufiane Rahimi Al Ain Ativo 141 / 153 40% 5 02.03.2027 -
Sergio Quintero La Equidad Ativo 145 / 126 40% 1 02.03.2027 -
Eduardo Quaresma Sporting CP Ativo 143 / 141 40% 3 01.03.2027 -
Christos Zafeiris Galatasaray Ativo 132 / 124 40% 3 01.03.2027 -
Ardon Jashari AC Milan Ativo 135 / 146 40% 6 27.02.2027 -
Marcus Holmgren Pedersen Olympiacos Ativo 141 / 144 40% 4 27.02.2027 -
Marlon Gomes Shakhtar Ativo 130 / 142 40% 4 25.02.2027 -
Sergio Carreira Celta Ativo 136 / 136 40% 2 25.02.2027 -
Thierry Rendall Correia Venezia Ativo 146 / 129 40% 4 23.02.2027 Observar
Enrico Delprato Parma Ativo 137 / 140 40% 1 23.02.2027 -
Vitão Flamengo Ativo 136 / 141 40% 4 22.02.2027 -
Lorenzo Pirola Olympiacos Ativo 127 / 128 40% 2 22.02.2027 -
Alexandre Penetra AZ Ativo 138 / 144 40% 1 19.02.2027 -
Felipe Loyola Pisa Ativo 135 / 129 40% 5 18.02.2027 -
Maxence Caqueret Como Ativo 131 / 135 40% 1 13.02.2027 -
Pedro Henrique Shakhtar Ativo 138 / 117 40% 1 10.02.2027 -
Sergiño Dest PSV Ativo 137 / 140 40% 1 08.02.2027 -
Odilon Kossounou Atalanta Ativo 144 / 147 40% 1 07.02.2027 -
Nicolò Bertola Udinese Ativo 135 / 133 40% 1 02.02.2027 -
Takashi Usami FC Augsburg Perdido 123 / 136 79% 1 25.01.2027 Aprovar
Lorenzo Pirola Olympiacos Perdido 130 / 146 40% 1 25.01.2027 -
Tanguy Nianzou LOSC Lille Ativo 130 / 124 40% 1 24.01.2027 -
Kiliann Sildillia PSV Ativo 137 / 125 40% 1 24.01.2027 -
Jakub Moder Feyenoord Ativo 138 / 145 40% 1 24.01.2027 -
Rodrigo Huescas FC Copenhagen Ativo 142 / 132 40% 2 23.01.2027 -
Sikou Niakaté Braga Ativo 137 / 135 40% 2 23.01.2027 -
Nacer Tielemans Mouscron Ativo 130 / 142 40% 1 19.01.2027 -
Axel Tape Bayer Leverkusen Perdido 125 / 123 79% 1 11.01.2027 Aprovar
Yorbe Vertessen Red Bull Salzburg Ativo 131 / 120 40% 1 03.01.2027 -
Brian Gutiérrez Guadalajara Ativo 134 / 144 40% 1 03.01.2027 -
Bruno Gomes Internacional Perdido 126 / 146 40% 1 03.01.2027 -
Oleh Ocheretko Shakhtar Ativo 132 / 133 40% 1 03.01.2027 -
Israel Reyes Club America Ativo 137 / 137 68% 1 01.01.2027 Aprovar
Luiz Henrique Zenit Relatório pronto 142 / 143 68% 1 01.01.2027 Aprovar
Igoh Ogbu Racing Genk Ativo 146 / 146 66% 1 01.01.2027 Aprovar
Roberto Alvarado Guadalajara Ativo 139 / 139 66% 1 01.01.2027 Aprovar
Bitello Dinamo Moscow Ativo 135 / 135 68% 1 01.01.2027 Aprovar
Felipe Augusto Zenit Ativo 137 / 120 40% 3 31.12.2026 -
Rafik Guitane Estoril Praia Ativo 131 / 127 40% 1 31.12.2026 -
Facundo Pellistri Panathinaikos Ativo 124 / 127 40% 1 31.12.2026 -
Bernardo TSG Hoffenheim Ativo 139 / 133 40% 4 29.12.2026 -
Grischa Prömel Heidenheim Ativo 140 / 150 40% 2 29.12.2026 -
Andreas Pereira Palmeiras Ativo 141 / 134 40% 1 29.12.2026 -
Mahamadou Doumbia Al-Ittihad Ativo 123 / 131 40% 1 29.12.2026 -
Jhon Jhon Zenit Ativo 130 / 116 40% 1 29.12.2026 -
Michael Cooper Sheffield United Ativo 133 / 137 40% 2 27.12.2026 -
Esequiel Barco Spartak Moscow Ativo 138 / 130 40% 1 27.12.2026 -
Pascal Loretz Luzern Ativo 126 / 126 40% 1 27.12.2026 -
George Wickens Lincoln City Ativo 113 / 118 40% 1 27.12.2026 -
Michy Fellaini KV Oostende Ativo 134 / 134 40% 8 24.12.2026 -
Erik Prekop Gornik Zabrze Ativo 132 / 109 40% 2 23.12.2026 -
Jason Januzaj Mouscron Ativo 151 / 137 40% 4 22.12.2026 -
Alexis Vega Toluca Ativo 140 / 149 40% 8 20.12.2026 -
Malcom Al Jazira Ativo 147 / 161 40% 3 19.12.2026 -
Nicolás Fernández Belgrano Ativo 124 / 125 40% 2 19.12.2026 -
Lukas Klostermann RB Leipzig Ativo 138 / 141 40% 1 19.12.2026 -
Ezequiel Ponce Elche Ativo 132 / 136 40% 2 17.12.2026 -
Nemanja Radonjić Crvena Zvezda Ativo 137 / 114 40% 4 17.12.2026 -
Adriano Bertaccini Anderlecht Ativo 130 / 115 40% 2 17.12.2026 -
Zizo Al Ahly Ativo 135 / 144 40% 1 17.12.2026 -
Cesar Corona Veracruz Ativo 144 / 128 40% 9 14.12.2026 -
Sergej Milinković-Savić Al-Hilal Ativo 153 / 141 40% 1 14.12.2026 -
Matheus Pereira Cruzeiro Ativo 145 / 133 40% 1 14.12.2026 -
Ola Solbakken FC Nordsjaelland Ativo 126 / 117 40% 2 12.12.2026 -
Jakub Surovčík Sparta Prague Ativo 114 / 119 40% 1 12.12.2026 -
Antonio Gomis Vizela Ativo 121 / 118 40% 1 12.12.2026 -
Matthieu Epolo Standard Liege Ativo 116 / 123 40% 1 12.12.2026 -
Exequiel Zeballos Boca Juniors Ativo 126 / 130 40% 3 08.12.2026 -
Fashion Sakala Al-Fayha Ativo 127 / 114 40% 3 08.12.2026 -
Guilherme Fernandes Córdoba Ativo 127 / 133 40% 3 07.12.2026 -
Hugo Souza Corinthians Ativo 133 / 130 40% 1 07.12.2026 -
Jens Petter Hauge Bodo/Glimt Ativo 133 / 148 40% 4 05.12.2026 -
Kenny Tete Fulham Ativo 148 / 145 40% 1 05.12.2026 -
Youssef En-Nesyri Al-Ittihad Ativo 146 / 129 40% 5 03.12.2026 -
Nicolò Tresoldi Club Brugge Ativo 137 / 128 40% 4 03.12.2026 -
Benjamin Henrichs RB Leipzig Ativo 150 / 146 40% 1 02.12.2026 -
Mehdi Ghayedi Al Nasr Ativo 127 / 129 40% 2 30.11.2026 -
Diber Cambindo Leon Ativo 122 / 143 40% 5 29.11.2026 -
Isi Palazón Rayo Vallecano Ativo 142 / 149 40% 2 28.11.2026 -
Amine El Ouazzani Braga Ativo 130 / 126 40% 3 28.11.2026 -
Mexx Meerdink AZ Ativo 134 / 124 40% 1 27.11.2026 -
José Gayà Valencia Ativo 138 / 141 40% 3 26.11.2026 -
Alejandro Zendejas Club America Ativo 141 / 149 40% 4 26.11.2026 -
Seiya Maikuma AZ Ativo 141 / 127 40% 1 26.11.2026 -
Che Adams Torino Ativo 134 / 139 40% 3 23.11.2026 -
Ismael Díaz Leon Ativo 123 / 122 40% 1 23.11.2026 -
Heorhii Yermakov Metalist Ativo 122 / 106 40% 1 23.11.2026 -
Oleksandr Saputin Zorya Ativo 112 / 106 40% 1 23.11.2026 -
Mio Backhaus SC Freiburg Ativo 133 / 138 40% 1 23.11.2026 -
Brenner Vasco da Gama Ativo 134 / 117 40% 1 19.11.2026 -
Gorka Guruzeta Athletic Bilbao Ativo 142 / 148 40% 5 18.11.2026 -
Ellyes Skhiri Köln Ativo 143 / 127 40% 2 18.11.2026 -
Chris Ramos Botafogo Ativo 121 / 135 40% 1 18.11.2026 -
Luis Romo Guadalajara Ativo 140 / 122 40% 2 16.11.2026 -
Héctor Bellerín Betis Ativo 145 / 134 40% 1 16.11.2026 -
José Paradela Cruz Azul Ativo 137 / 152 40% 2 14.11.2026 -
Emanuele Valeri Parma Ativo 134 / 137 40% 1 13.11.2026 -
Marcel Ruiz Toluca Ativo 138 / 146 40% 4 12.11.2026 -
Axel Openda KV Oostende Ativo 132 / 130 40% 3 09.11.2026 -
Theo Bongonda Al-Faisaly Ativo 142 / 139 40% 1 09.11.2026 -
Wessam Abou Ali Columbus Crew Ativo 131 / 116 40% 3 07.11.2026 -
Mateo Cassierra Atlético Mineiro Ativo 132 / 131 40% 3 07.11.2026 -
Kévin Denkey FC Cincinnati Ativo 123 / 122 40% 2 06.11.2026 -
Dejan Joveljić Seattle Sounders Ativo 120 / 140 40% 1 06.11.2026 -
Chris Brady Chicago Fire Ativo 124 / 133 40% 1 06.11.2026 -
Jakub Stolarczyk Leicester City Ativo 136 / 139 40% 1 06.11.2026 -
Gonzalo Plata Dinamo Moscow Ativo 127 / 122 40% 5 04.11.2026 -
Lukáš Provod Slavia Prague Ativo 149 / 154 40% 3 03.11.2026 -
Jon Guridi Sevilla Ativo 139 / 130 40% 1 03.11.2026 -
Sandro Las Palmas Ativo 136 / 137 40% 1 03.11.2026 -
Fiete Arp OB Ativo 125 / 130 40% 1 01.11.2026 -
Conrad Harder RB Leipzig Ativo 133 / 149 40% 2 31.10.2026 -
Hugo Cuypers Monterrey Ativo 120 / 141 40% 1 30.10.2026 -
Manfred Ugalde Spartak Moscow Ativo 132 / 116 40% 1 29.10.2026 -
Phillip Tietz Mainz 05 Ativo 131 / 125 40% 1 24.10.2026 -
Aitor Ruibal Betis Ativo 138 / 133 40% 1 24.10.2026 -
Hidemasa Morita Hull City Ativo 138 / 144 40% 1 23.10.2026 -
Sebastián Villa Boca Juniors Ativo 127 / 121 40% 3 22.10.2026 -
Sorriso Famalicao Ativo 126 / 136 40% 2 22.10.2026 -
Jesús Vázquez Valencia Ativo 137 / 137 40% 1 22.10.2026 -
Joaquín Pereyra Minnesota United FC Ativo 129 / 132 40% 2 19.10.2026 -
Juan Bisanz Huracán Ativo 124 / 117 40% 1 19.10.2026 -
Anthony Racioppi Sion Ativo 125 / 126 40% 2 18.10.2026 -
Sergio Reguilón Inter Miami CF Ativo 136 / 133 40% 2 18.10.2026 -
Javi Galán Celta Ativo 145 / 150 40% 1 18.10.2026 -
Isidro Pitta Bragantino Ativo 126 / 123 40% 1 14.10.2026 -
Sam Surridge Nashville SC Ativo 136 / 139 40% 4 13.10.2026 -
Marvin Keller Young Boys Ativo 143 / 144 40% 2 13.10.2026 -
Niklas Steffen Thun Ativo 115 / 115 40% 1 13.10.2026 -
Kostantis Tzolakis Hull City Ativo 134 / 150 40% 1 13.10.2026 -
Luca Orellano Monterrey Ativo 140 / 142 40% 4 11.10.2026 -
Iván Martín Racing Club Ativo 146 / 127 40% 2 11.10.2026 -
Mojmír Chytil Besiktas Ativo 132 / 150 40% 1 11.10.2026 -
Urko Izeta Cádiz Ativo 131 / 120 40% 4 09.10.2026 -
Tobias Bech AGF Ativo 135 / 144 40% 4 08.10.2026 -
Luis Vázquez Birmingham Ativo 126 / 137 40% 2 08.10.2026 -
Ilias Akhomach Villarreal Ativo 136 / 152 40% 1 08.10.2026 -
Miguel Merentiel Boca Juniors Ativo 136 / 135 40% 1 07.10.2026 -
Maurits Kjærgaard Red Bull Salzburg Ativo 131 / 137 40% 2 05.10.2026 -
Hwang Hee-Chan Wolverhampton Ativo 131 / 136 40% 2 02.10.2026 -
Patrick Schulte Columbus Crew Ativo 121 / 133 40% 1 01.10.2026 -
Fernando Gorriarán Tigres Ativo 133 / 153 40% 2 29.09.2026 -
Yuma Suzuki Kashima Antlers Ativo 133 / 147 40% 1 29.09.2026 -
Yasuto Wakizaka Kawasaki Frontale Ativo 142 / 151 40% 1 29.09.2026 -
Oscar Gloukh Ajax Ativo 128 / 135 40% 1 27.09.2026 -
Diego Conde Villarreal Ativo 135 / 127 40% 2 25.09.2026 -
Ryan Gauld Vancouver Whitecaps Ativo 129 / 124 40% 1 25.09.2026 -
Ramy Bensebaini Borussia Dortmund Ativo 141 / 154 40% 1 25.09.2026 -
Jonathan Bamba Chicago Fire Ativo 132 / 148 40% 1 25.09.2026 -
Anthony Patterson Wrexham Ativo 132 / 121 40% 1 25.09.2026 -
Gustavo Puerta Racing Santander Ativo 139 / 148 40% 1 25.09.2026 -
Aune Heggebø West Bromwich Albion Ativo 124 / 138 40% 1 23.09.2026 -
Lucien Agoumé Sevilla Ativo 137 / 130 40% 1 21.09.2026 -
Ritsu Doan Gamba Osaka Ativo 151 / 135 40% 2 16.09.2026 -
Alan Velasco Boca Juniors Ativo 136 / 133 40% 1 15.09.2026 -
Timo Werner San Jose Earthquakes Ativo 121 / 122 40% 1 12.09.2026 -
Óliver Monterrey Ativo 130 / 130 40% 1 12.09.2026 -
Paul Nebel Mainz 05 Ativo 134 / 153 40% 1 12.09.2026 -
Ferland Mendy Real Madrid Ativo 139 / 139 40% 1 12.09.2026 -
Mauro Arambarri River Plate Ativo 154 / 170 40% 2 10.09.2026 -
Jon Karrikaburu Burgos Ativo 129 / 131 40% 4 08.09.2026 -
Robert Andrich Bayer Leverkusen Ativo 152 / 139 40% 1 05.09.2026 -
Alejandro Balde Barcelona Ativo 153 / 160 40% 1 05.09.2026 -
Dani Raba Valencia Ativo 130 / 142 40% 1 04.09.2026 -
Igor Matanović SC Freiburg Ativo 133 / 130 40% 1 04.09.2026 -
Jon Morcillo Almería Ativo 128 / 120 40% 2 01.09.2026 -
Pedro Flamengo Ativo 139 / 156 40% 2 31.08.2026 -
Allan Saint-Maximin Charlotte Football Club Ativo 140 / 127 40% 1 31.08.2026 -
Mutsuki Kato Sanfrecce Hiroshima Ativo 123 / 125 40% 1 29.08.2026 -
Talles Magno New York City Ativo 127 / 146 40% 1 29.08.2026 -
Vitor Roque Palmeiras Ativo 135 / 137 40% 1 28.08.2026 -
Rafael Santos Borré River Plate Ativo 123 / 141 40% 2 27.08.2026 -
Lucas Boyé Alavés Ativo 138 / 146 40% 2 25.08.2026 -
Yuri Alberto Corinthians Ativo 141 / 150 40% 1 23.08.2026 -
Barış Alper Yılmaz Galatasaray Ativo 149 / 145 40% 1 22.08.2026 -
Jean-Luc Morin Tours Ativo 141 / 146 40% 1 22.08.2026 -
Petar Musa FC Dallas Ativo 137 / 150 40% 1 19.08.2026 -
Kerem Aktürkoğlu Fenerbahce Ativo 132 / 128 40% 1 18.08.2026 -
James McConnell Liverpool Ativo 117 / 121 40% 1 16.08.2026 -
Corsin Konietzke St. Gallen Ativo 105 / 113 40% 1 15.08.2026 -
Ignacio Perruzzi San Lorenzo Ativo 126 / 118 40% 1 14.08.2026 -
Arjan Malić Sturm Graz Ativo 118 / 126 40% 1 14.08.2026 -
Soumaïla Diabaté Red Bull Salzburg Ativo 109 / 108 40% 2 12.08.2026 -
John Mellberg Red Bull Salzburg Ativo 112 / 116 40% 1 12.08.2026 -
Umar Sadiq Valencia Ativo 137 / 136 40% 1 02.08.2026 -
Elías Báez Atlanta United FC Ativo 125 / 135 40% 1 02.08.2026 -
Dayann Methalie Sunderland Ativo 121 / 142 40% 1 02.08.2026 -